Time;durP1;ratioP1;P1;durP2;ratioP2;P2;SDS_P1;SDS_P2;PMS_P1;PMS_P2;Temp;Humidity;BMP_temperature;BMP_pressure;BME280_temperature;BME280_humidity;BME280_pressure;Samples;Min_cycle;Max_cycle;Signal;HPM_P1;HPM_P2
2021/12/09 00:00:30;;;;;;;8.33;7.63;;;;;;;1.75;99.07;95355.16;5031177;28;20233;-67
2021/12/09 00:02:57;;;;;;;8.53;7.63;;;;;;;1.74;100.00;95362.13;5017653;28;20696;-69
2021/12/09 00:05:24;;;;;;;8.93;8.13;;;;;;;1.70;100.00;95360.72;5038010;28;20213;-66
2021/12/09 00:07:52;;;;;;;9.30;8.50;;;;;;;1.70;99.70;95360.72;5045474;28;20206;-70
2021/12/09 00:10:19;;;;;;;8.17;7.47;;;;;;;1.71;99.38;95366.75;5028499;28;20537;-66
2021/12/09 00:12:46;;;;;;;9.00;8.17;;;;;;;1.74;99.98;95363.91;5035106;28;20259;-70
2021/12/09 00:15:14;;;;;;;9.00;8.20;;;;;;;1.68;100.00;95364.41;5038272;28;20214;-70
2021/12/09 00:17:40;;;;;;;9.17;8.27;;;;;;;1.69;100.00;95366.91;5035399;28;20324;-67
2021/12/09 00:20:08;;;;;;;8.87;7.97;;;;;;;1.70;100.00;95368.53;5036329;28;20634;-73
2021/12/09 00:22:34;;;;;;;9.27;8.47;;;;;;;1.71;99.96;95370.19;5042303;28;20215;-67
2021/12/09 00:25:01;;;;;;;9.50;8.60;;;;;;;1.72;99.81;95371.88;5036026;28;20209;-67
2021/12/09 00:27:27;;;;;;;10.13;9.23;;;;;;;1.71;99.15;95370.19;5036453;28;20206;-69
2021/12/09 00:29:54;;;;;;;9.53;8.60;;;;;;;1.76;100.00;95365.47;5035399;28;20210;-67
2021/12/09 00:32:22;;;;;;;10.03;9.07;;;;;;;1.75;100.00;95366.41;5016804;28;20210;-70
2021/12/09 00:34:50;;;;;;;9.50;8.60;;;;;;;1.76;100.00;95368.06;5015332;28;20542;-66
2021/12/09 00:37:22;;;;;;;9.37;8.47;;;;;;;1.78;99.67;95366.16;5035416;28;20238;-69
2021/12/09 00:39:50;;;;;;;9.90;8.80;;;;;;;1.75;100.00;95369.00;5034596;28;20255;-71
2021/12/09 00:42:17;;;;;;;9.90;8.90;;;;;;;1.83;99.85;95369.25;5035087;28;20236;-68
2021/12/09 00:44:43;;;;;;;9.40;8.50;;;;;;;1.79;99.44;95362.63;5035084;28;20230;-68
2021/12/09 00:47:10;;;;;;;9.27;8.37;;;;;;;1.79;100.00;95370.44;5035251;28;20213;-68
2021/12/09 00:49:37;;;;;;;8.93;8.07;;;;;;;1.80;100.00;95366.06;5039000;28;20275;-69
2021/12/09 00:52:05;;;;;;;8.73;7.93;;;;;;;1.81;100.00;95367.69;5033853;28;20211;-70
2021/12/09 00:54:34;;;;;;;8.23;7.50;;;;;;;1.79;100.00;95373.03;5035043;28;20210;-71
2021/12/09 00:57:00;;;;;;;9.43;8.63;;;;;;;1.75;100.00;95368.19;5034471;28;20235;-70
2021/12/09 00:59:27;;;;;;;9.27;8.37;;;;;;;1.76;100.00;95368.06;5034150;28;20218;-69
2021/12/09 01:01:53;;;;;;;9.17;8.37;;;;;;;1.77;99.94;95372.31;5025348;28;20211;-72
2021/12/09 01:04:20;;;;;;;9.27;8.37;;;;;;;1.80;100.00;95376.47;5019306;28;20222;-69
2021/12/09 01:06:49;;;;;;;9.23;8.33;;;;;;;1.85;100.00;95375.16;5044739;28;20227;-71
2021/12/09 01:09:15;;;;;;;8.67;7.87;;;;;;;1.83;100.00;95381.44;5038432;28;20202;-71
2021/12/09 01:11:42;;;;;;;10.23;8.80;;;;;;;1.81;100.00;95384.16;5024557;28;20638;-71
2021/12/09 01:14:09;;;;;;;9.57;8.67;;;;;;;1.82;100.00;95387.59;5014700;28;20642;-68
2021/12/09 01:16:35;;;;;;;9.33;8.40;;;;;;;1.80;100.00;95382.53;5014495;28;20230;-67
2021/12/09 01:19:02;;;;;;;10.23;9.23;;;;;;;1.88;100.00;95393.16;5031652;28;20518;-67
2021/12/09 01:21:28;;;;;;;9.70;8.80;;;;;;;1.89;99.92;95399.19;5033334;28;20210;-68
2021/12/09 01:23:56;;;;;;;9.40;8.50;;;;;;;1.90;100.00;95395.66;5017231;28;20207;-70
2021/12/09 01:26:24;;;;;;;9.17;8.37;;;;;;;1.92;99.81;95391.97;5015353;28;20210;-67
2021/12/09 01:28:55;;;;;;;9.17;8.37;;;;;;;1.92;99.62;95394.56;5031785;28;20205;-70
2021/12/09 01:31:25;;;;;;;9.40;8.50;;;;;;;1.84;99.26;95394.34;5035079;28;20209;-71
2021/12/09 01:33:53;;;;;;;9.73;8.83;;;;;;;1.89;100.00;95397.41;5035191;28;20296;-70
2021/12/09 01:36:20;;;;;;;9.27;8.47;;;;;;;1.86;99.35;95399.44;5034318;28;20577;-68
2021/12/09 01:38:47;;;;;;;8.50;7.80;;;;;;;1.86;100.00;95394.22;5014744;28;20658;-68
2021/12/09 01:41:15;;;;;;;9.23;8.33;;;;;;;1.82;99.84;95401.47;5014688;28;20275;-71
2021/12/09 01:43:41;;;;;;;9.30;8.47;;;;;;;1.84;100.00;95402.16;5022693;28;20216;-68
2021/12/09 01:46:10;;;;;;;10.83;9.83;;;;;;;1.84;100.00;95403.97;5034745;28;20237;-70
2021/12/09 01:48:38;;;;;;;10.00;9.00;;;;;;;1.87;100.00;95406.31;5030918;28;20222;-70
2021/12/09 01:51:05;;;;;;;10.37;9.37;;;;;;;1.91;99.86;95415.56;5033125;28;20209;-70
2021/12/09 01:53:31;;;;;;;9.17;8.27;;;;;;;1.89;99.80;95413.06;5033335;28;20298;-67
2021/12/09 01:55:59;;;;;;;9.83;8.93;;;;;;;1.91;100.00;95420.78;5041298;28;20192;-71
2021/12/09 01:58:27;;;;;;;10.40;9.40;;;;;;;1.87;100.00;95417.56;5041553;28;20271;-69
2021/12/09 02:00:54;;;;;;;10.33;9.33;;;;;;;1.93;100.00;95422.31;5040171;28;20285;-68
2021/12/09 02:03:20;;;;;;;10.70;9.57;;;;;;;1.84;100.00;95412.56;5039313;28;20211;-69
2021/12/09 02:05:47;;;;;;;11.03;9.87;;;;;;;1.86;100.00;95415.91;5044527;28;20213;-71
2021/12/09 02:08:16;;;;;;;10.23;9.23;;;;;;;1.89;100.00;95423.50;5018760;28;20221;-68
2021/12/09 02:10:44;;;;;;;10.17;9.17;;;;;;;1.89;100.00;95428.69;5020727;28;20225;-68
2021/12/09 02:13:11;;;;;;;10.63;9.63;;;;;;;1.90;99.92;95427.75;5039013;28;20215;-71
2021/12/09 02:15:40;;;;;;;10.70;9.70;;;;;;;1.89;100.00;95431.31;5034186;28;20214;-70
2021/12/09 02:18:07;;;;;;;10.43;9.43;;;;;;;1.85;100.00;95442.91;5036377;28;20227;-69
2021/12/09 02:20:37;;;;;;;10.13;9.23;;;;;;;1.79;99.19;95438.19;5030124;28;20218;-70
2021/12/09 02:23:08;;;;;;;10.47;9.47;;;;;;;1.90;100.00;95438.19;5024179;28;20303;-66
2021/12/09 02:25:35;;;;;;;9.87;8.97;;;;;;;1.91;99.88;95445.03;5035725;28;20216;-73
2021/12/09 02:28:02;;;;;;;10.00;9.00;;;;;;;1.91;100.00;95447.63;5037512;28;20209;-73
2021/12/09 02:30:28;;;;;;;10.30;9.30;;;;;;;1.90;100.00;95447.78;5019933;28;20651;-69
2021/12/09 02:32:54;;;;;;;10.57;9.57;;;;;;;1.85;99.59;95444.69;5018290;28;20211;-68
2021/12/09 02:35:21;;;;;;;11.10;10.00;;;;;;;1.79;98.65;95440.78;5017994;28;20220;-70
2021/12/09 02:37:49;;;;;;;11.60;10.50;;;;;;;1.88;99.59;95450.50;5017841;28;20238;-66
2021/12/09 02:40:17;;;;;;;10.30;9.30;;;;;;;1.92;100.00;95451.09;5017602;28;20226;-69
2021/12/09 02:42:43;;;;;;;11.03;10.00;;;;;;;1.86;100.00;95455.00;5029443;28;20202;-67
2021/12/09 02:45:12;;;;;;;9.97;9.07;;;;;;;1.91;100.00;95457.25;5018499;28;20227;-70
2021/12/09 02:47:38;;;;;;;10.03;9.13;;;;;;;1.86;99.83;95452.41;5017776;28;20233;-68
2021/12/09 02:50:07;;;;;;;10.83;9.83;;;;;;;1.82;99.80;95455.34;5019407;28;20210;-67
2021/12/09 02:52:33;;;;;;;10.37;9.37;;;;;;;1.82;99.38;95466.63;5037128;28;20213;-68
2021/12/09 02:55:01;;;;;;;9.57;8.67;;;;;;;1.90;99.68;95459.03;5023983;28;20289;-66
2021/12/09 02:57:28;;;;;;;10.43;9.43;;;;;;;1.87;99.72;95463.66;5036698;28;20238;-71
2021/12/09 02:59:54;;;;;;;10.27;9.27;;;;;;;1.84;100.00;95463.91;5037451;28;20214;-75
2021/12/09 03:02:21;;;;;;;10.50;9.50;;;;;;;1.80;99.99;95473.75;5036922;28;20207;-74
2021/12/09 03:04:49;;;;;;;10.27;9.37;;;;;;;1.84;99.97;95479.53;5042917;28;20221;-67
2021/12/09 03:07:18;;;;;;;9.73;8.83;;;;;;;1.86;100.00;95480.25;5042805;28;20205;-68
2021/12/09 03:09:50;;;;;;;11.37;9.87;;;;;;;1.81;100.00;95475.38;5036731;28;20471;-67
2021/12/09 03:12:21;;;;;;;9.93;8.93;;;;;;;1.85;100.00;95474.19;5036690;28;20203;-67
2021/12/09 03:14:47;;;;;;;7.67;6.97;;;;;;;1.97;100.00;95473.25;5045153;28;20201;-70
2021/12/09 03:17:14;;;;;;;6.00;5.37;;;;;;;2.00;100.00;95480.84;5028466;28;20258;-70
2021/12/09 03:19:41;;;;;;;3.93;3.63;;;;;;;2.10;99.58;95477.50;5036816;28;20218;-68
2021/12/09 03:22:08;;;;;;;3.83;3.53;;;;;;;2.17;99.08;95478.66;5036776;28;20214;-68
2021/12/09 03:24:34;;;;;;;3.60;3.30;;;;;;;2.14;98.62;95471.94;5036687;28;20669;-72
2021/12/09 03:27:01;;;;;;;3.50;3.30;;;;;;;2.14;98.38;95476.31;5036554;28;20203;-70
2021/12/09 03:29:29;;;;;;;4.07;3.70;;;;;;;2.19;98.68;95479.41;5037380;28;20206;-66
2021/12/09 03:31:58;;;;;;;5.73;3.77;;;;;;;2.26;97.63;95480.56;5037127;28;20218;-67
2021/12/09 03:34:28;;;;;;;4.57;4.10;;;;;;;2.30;96.62;95476.78;5037474;28;20222;-66
2021/12/09 03:36:56;;;;;;;4.70;4.30;;;;;;;2.34;96.25;95479.00;5036275;28;20261;-66
2021/12/09 03:39:25;;;;;;;4.20;3.90;;;;;;;2.44;95.29;95473.91;5038313;28;20213;-70
2021/12/09 03:41:55;;;;;;;6.70;4.90;;;;;;;2.44;95.20;95482.53;5036373;28;20564;-71
2021/12/09 03:44:22;;;;;;;6.77;5.07;;;;;;;2.42;95.00;95475.78;5037115;28;20213;-66
2021/12/09 03:46:51;;;;;;;5.00;4.60;;;;;;;2.53;94.41;95488.81;5036330;28;20210;-68
2021/12/09 03:49:18;;;;;;;5.13;4.37;;;;;;;2.45;94.76;95496.41;5036152;28;20638;-71
2021/12/09 03:51:44;;;;;;;5.83;5.30;;;;;;;2.44;94.61;95487.75;5032019;28;20202;-70
2021/12/09 03:54:12;;;;;;;5.20;4.70;;;;;;;2.41;95.58;95494.97;5036571;28;20231;-68
2021/12/09 03:56:39;;;;;;;5.50;5.10;;;;;;;2.36;94.84;95497.16;5035620;28;20211;-71
2021/12/09 03:59:07;;;;;;;5.23;4.83;;;;;;;2.38;95.61;95505.66;5029880;28;20238;-70
2021/12/09 04:01:35;;;;;;;6.13;5.53;;;;;;;2.49;94.67;95503.03;5037967;28;20212;-72
2021/12/09 04:04:04;;;;;;;6.00;5.40;;;;;;;2.53;94.25;95509.69;5037524;28;20209;-70
2021/12/09 04:06:30;;;;;;;6.07;5.57;;;;;;;2.50;94.32;95504.72;5021289;28;20226;-71
2021/12/09 04:08:57;;;;;;;6.53;5.93;;;;;;;2.41;94.10;95510.63;5015768;28;20222;-70
2021/12/09 04:11:24;;;;;;;5.30;4.90;;;;;;;2.51;94.58;95507.19;5015894;28;20214;-71
2021/12/09 04:13:50;;;;;;;5.17;4.77;;;;;;;2.56;93.64;95505.97;5015842;28;20216;-68
2021/12/09 04:16:17;;;;;;;5.03;4.63;;;;;;;2.52;94.01;95518.44;5020593;28;20218;-68
2021/12/09 04:18:44;;;;;;;5.07;4.53;;;;;;;2.57;94.57;95518.09;5028846;28;20235;-70
2021/12/09 04:21:13;;;;;;;5.10;4.67;;;;;;;2.50;94.95;95522.97;5035587;28;20215;-68
2021/12/09 04:23:39;;;;;;;5.27;4.87;;;;;;;2.50;94.82;95533.41;5035417;28;20216;-69
2021/12/09 04:26:06;;;;;;;5.17;4.53;;;;;;;2.49;94.82;95526.53;5034965;28;20211;-71
2021/12/09 04:28:33;;;;;;;6.10;5.50;;;;;;;2.53;94.61;95527.94;5035316;28;20214;-68
2021/12/09 04:30:59;;;;;;;5.47;4.97;;;;;;;2.61;94.99;95525.56;5034672;28;20668;-71
2021/12/09 04:33:26;;;;;;;5.40;4.90;;;;;;;2.65;93.84;95533.97;5033644;28;20556;-70
2021/12/09 04:35:53;;;;;;;5.43;4.93;;;;;;;2.64;94.08;95548.81;5015696;28;20560;-71
2021/12/09 04:38:21;;;;;;;5.20;4.80;;;;;;;2.76;92.67;95547.00;5015211;28;20229;-69
2021/12/09 04:40:47;;;;;;;4.60;4.30;;;;;;;2.66;93.12;95541.66;5015551;28;20255;-73
2021/12/09 04:43:13;;;;;;;5.17;4.67;;;;;;;2.63;93.44;95554.97;5033811;28;20231;-70
2021/12/09 04:45:40;;;;;;;4.90;4.50;;;;;;;2.62;93.51;95553.31;5035020;28;20645;-70
2021/12/09 04:48:08;;;;;;;4.70;4.30;;;;;;;2.59;94.49;95552.75;5035170;28;20207;-69
2021/12/09 04:50:35;;;;;;;6.20;5.17;;;;;;;2.59;94.38;95556.16;5034777;28;20206;-67
2021/12/09 04:53:02;;;;;;;4.93;4.50;;;;;;;2.58;94.20;95557.13;5035003;28;20222;-70
2021/12/09 04:55:30;;;;;;;8.03;6.37;;;;;;;2.58;94.94;95559.72;5034869;28;20206;-68
2021/12/09 04:57:56;;;;;;;5.37;4.87;;;;;;;2.63;94.23;95561.97;5034638;28;20234;-71
2021/12/09 05:00:25;;;;;;;5.53;5.03;;;;;;;2.52;95.11;95565.41;5034150;28;20598;-72
2021/12/09 05:03:02;;;;;;;8.17;5.30;;;;;;;2.58;94.96;95570.16;5016615;28;20246;-70
2021/12/09 05:05:32;;;;;;;5.80;5.27;;;;;;;2.62;93.63;95571.59;5038309;28;20545;-71
2021/12/09 05:07:59;;;;;;;5.40;4.93;;;;;;;2.70;93.35;95578.78;5022302;28;20269;-71
2021/12/09 05:10:25;;;;;;;6.17;5.30;;;;;;;2.66;93.71;95586.03;5034955;28;20525;-71
2021/12/09 05:12:53;;;;;;;5.47;4.97;;;;;;;2.73;92.86;95583.78;5034853;28;20213;-72
2021/12/09 05:15:20;;;;;;;5.23;4.73;;;;;;;2.63;93.64;95588.88;5043031;28;20210;-72
2021/12/09 05:17:46;;;;;;;6.83;5.07;;;;;;;2.66;93.76;95587.84;5046692;28;20227;-72
2021/12/09 05:20:13;;;;;;;5.90;4.53;;;;;;;2.63;94.20;95594.09;5045849;28;20258;-71
2021/12/09 05:22:39;;;;;;;7.97;5.63;;;;;;;2.69;94.13;95604.09;5042718;28;20205;-70
2021/12/09 05:25:06;;;;;;;5.73;5.00;;;;;;;2.65;93.41;95596.59;5025543;28;20215;-70
2021/12/09 05:27:36;;;;;;;5.83;5.23;;;;;;;2.67;94.48;95605.97;5039139;28;20206;-69
2021/12/09 05:30:07;;;;;;;6.63;5.10;;;;;;;2.69;94.71;95603.25;5043923;28;20273;-70
2021/12/09 05:32:33;;;;;;;6.70;5.10;;;;;;;2.87;91.77;95602.59;5026504;28;20538;-70
2021/12/09 05:35:00;;;;;;;5.80;5.30;;;;;;;2.68;93.39;95604.19;5031603;28;20216;-71
2021/12/09 05:37:28;;;;;;;5.87;5.03;;;;;;;2.62;93.26;95613.34;5051139;28;20313;-69
2021/12/09 05:39:56;;;;;;;5.53;5.03;;;;;;;2.62;93.62;95609.91;5040017;28;20236;-72
2021/12/09 05:42:24;;;;;;;6.87;6.07;;;;;;;2.71;92.26;95607.41;5045401;28;20256;-66
2021/12/09 05:44:52;;;;;;;6.90;6.10;;;;;;;2.73;91.98;95610.69;5034684;28;20579;-68
2021/12/09 05:47:20;;;;;;;6.07;5.50;;;;;;;2.71;92.14;95623.06;5038208;28;20217;-71
2021/12/09 05:49:48;;;;;;;6.03;5.43;;;;;;;2.69;92.66;95619.75;5038259;28;20218;-72
2021/12/09 05:52:15;;;;;;;6.00;5.40;;;;;;;2.69;92.70;95624.13;5037959;28;20206;-72
2021/12/09 05:54:42;;;;;;;6.27;5.67;;;;;;;2.72;92.37;95619.50;5037990;28;20225;-70
2021/12/09 05:57:09;;;;;;;6.83;5.77;;;;;;;2.77;92.28;95624.34;5037989;28;20217;-68
2021/12/09 05:59:40;;;;;;;6.60;5.50;;;;;;;2.77;91.80;95633.00;5033626;28;20327;-70
2021/12/09 06:02:07;;;;;;;7.30;5.40;;;;;;;2.73;92.27;95634.19;5031916;28;20234;-68
2021/12/09 06:04:35;;;;;;;5.77;5.20;;;;;;;2.69;92.33;95638.03;5027809;28;20207;-68
2021/12/09 06:07:02;;;;;;;5.67;5.10;;;;;;;2.75;92.06;95644.53;5045442;28;20280;-70
2021/12/09 06:09:28;;;;;;;6.63;5.00;;;;;;;2.76;90.86;95651.41;5037374;28;20211;-67
2021/12/09 06:11:55;;;;;;;6.27;5.67;;;;;;;2.80;91.23;95650.22;5037678;28;20649;-69
2021/12/09 06:14:21;;;;;;;6.23;5.63;;;;;;;2.79;91.33;95657.22;5037705;28;20214;-68
2021/12/09 06:16:48;;;;;;;6.37;5.30;;;;;;;2.73;91.09;95649.06;5037941;28;20635;-68
2021/12/09 06:19:14;;;;;;;6.10;5.20;;;;;;;2.81;90.77;95652.69;5036010;28;20285;-68
2021/12/09 06:21:42;;;;;;;6.03;5.23;;;;;;;2.82;90.82;95649.16;5036581;28;20839;-69
2021/12/09 06:24:09;;;;;;;6.93;5.43;;;;;;;2.64;91.51;95653.19;5018224;28;20211;-69
2021/12/09 06:26:35;;;;;;;7.37;4.93;;;;;;;2.66;92.08;95661.72;5018106;28;20211;-70
2021/12/09 06:29:02;;;;;;;5.63;5.00;;;;;;;2.67;91.62;95660.78;5036391;28;20207;-71
2021/12/09 06:31:29;;;;;;;5.97;5.37;;;;;;;2.74;91.37;95659.34;5030605;28;20204;-71
2021/12/09 06:33:55;;;;;;;8.03;5.60;;;;;;;2.65;92.51;95660.09;5018066;28;20211;-69
2021/12/09 06:36:22;;;;;;;6.60;5.70;;;;;;;2.63;94.01;95663.75;5017211;28;20219;-66
2021/12/09 06:38:50;;;;;;;6.83;6.13;;;;;;;2.65;92.75;95660.09;5017963;28;20234;-71
2021/12/09 06:41:17;;;;;;;9.17;6.07;;;;;;;2.64;91.97;95663.63;5023099;28;20241;-66
2021/12/09 06:43:43;;;;;;;7.20;6.23;;;;;;;2.66;92.71;95666.94;5031654;28;20229;-67
2021/12/09 06:46:11;;;;;;;7.47;6.77;;;;;;;2.73;92.02;95665.50;5036915;28;20221;-67
2021/12/09 06:48:38;;;;;;;9.37;7.63;;;;;;;2.68;93.14;95666.84;5036967;28;20214;-70
2021/12/09 06:51:06;;;;;;;7.90;6.83;;;;;;;2.65;92.31;95670.53;5032991;28;20214;-67
2021/12/09 06:53:32;;;;;;;10.00;8.43;;;;;;;2.68;92.88;95670.28;5037720;28;20665;-68
2021/12/09 06:56:00;;;;;;;8.00;7.20;;;;;;;2.68;93.39;95678.09;5037064;28;20207;-69
2021/12/09 06:58:27;;;;;;;7.20;6.27;;;;;;;2.70;93.66;95684.03;5037367;28;20231;-68
2021/12/09 07:00:54;;;;;;;7.60;6.87;;;;;;;2.70;92.76;95675.38;5037034;28;20235;-66
2021/12/09 07:03:21;;;;;;;7.17;6.03;;;;;;;2.74;92.51;95680.22;5037253;28;20535;-66
2021/12/09 07:05:50;;;;;;;5.90;5.40;;;;;;;2.84;91.54;95683.78;5037595;28;20234;-69
2021/12/09 07:08:16;;;;;;;6.93;6.30;;;;;;;2.81;90.60;95691.88;5037291;28;20593;-71
2021/12/09 07:10:43;;;;;;;7.43;5.40;;;;;;;2.81;91.35;95691.88;5036836;28;20214;-68
2021/12/09 07:13:11;;;;;;;6.70;6.07;;;;;;;2.79;92.11;95693.78;5037083;28;20206;-68
2021/12/09 07:15:37;;;;;;;7.93;5.40;;;;;;;2.83;93.00;95710.88;5034962;28;20666;-68
2021/12/09 07:18:04;;;;;;;6.63;5.90;;;;;;;2.78;92.70;95713.00;5036539;28;20536;-69
2021/12/09 07:20:31;;;;;;;6.23;4.60;;;;;;;2.92;92.39;95710.13;5036335;28;20219;-70
2021/12/09 07:22:59;;;;;;;5.97;5.40;;;;;;;2.96;92.75;95716.78;5036266;28;20214;-67
2021/12/09 07:25:27;;;;;;;5.93;5.37;;;;;;;3.13;90.47;95714.63;5036072;28;20202;-68
2021/12/09 07:27:54;;;;;;;5.50;5.00;;;;;;;3.12;90.34;95721.63;5036507;28;20214;-68
2021/12/09 07:30:26;;;;;;;6.50;5.80;;;;;;;3.07;90.41;95722.94;5036603;28;20242;-71
2021/12/09 07:32:53;;;;;;;7.97;5.00;;;;;;;3.13;90.01;95723.28;5028099;28;20228;-68
2021/12/09 07:35:20;;;;;;;5.53;4.80;;;;;;;3.05;90.58;95730.09;5032173;28;20207;-69
2021/12/09 07:37:47;;;;;;;9.73;5.33;;;;;;;3.03;91.37;95742.41;5026070;28;20208;-68
2021/12/09 07:40:15;;;;;;;7.90;5.57;;;;;;;3.11;88.95;95740.88;5017024;28;20250;-67
2021/12/09 07:42:42;;;;;;;6.37;4.93;;;;;;;3.03;90.47;95747.63;5017537;28;20217;-71
2021/12/09 07:45:10;;;;;;;5.87;5.27;;;;;;;3.08;90.67;95746.34;5017062;28;20211;-68
2021/12/09 07:47:38;;;;;;;6.10;5.30;;;;;;;3.16;89.52;95753.56;5036358;28;20206;-68
2021/12/09 07:50:07;;;;;;;5.07;4.63;;;;;;;3.24;88.45;95756.41;5036410;28;20516;-66
2021/12/09 07:52:34;;;;;;;4.90;4.50;;;;;;;3.13;89.12;95761.63;5036501;28;20602;-70
2021/12/09 07:55:00;;;;;;;6.03;4.90;;;;;;;3.12;88.88;95763.41;5033758;28;20211;-67
2021/12/09 07:57:26;;;;;;;5.20;4.70;;;;;;;3.08;88.78;95755.97;5029155;28;20199;-68
2021/12/09 07:59:53;;;;;;;6.60;5.07;;;;;;;3.05;89.57;95767.44;5035040;28;20227;-67
2021/12/09 08:02:20;;;;;;;6.37;5.00;;;;;;;3.07;90.54;95769.97;5033685;28;20211;-70
2021/12/09 08:04:48;;;;;;;8.00;5.00;;;;;;;3.01;90.62;95766.84;5037116;28;20207;-67
2021/12/09 08:07:14;;;;;;;5.07;4.57;;;;;;;3.06;88.61;95768.28;5036003;28;20207;-67
2021/12/09 08:09:41;;;;;;;5.90;4.50;;;;;;;3.16;89.48;95771.84;5028854;28;20207;-69
2021/12/09 08:12:08;;;;;;;5.37;4.77;;;;;;;3.20;89.15;95770.66;5029373;28;20209;-70
2021/12/09 08:14:34;;;;;;;5.67;4.30;;;;;;;3.19;90.26;95774.25;5016928;28;20212;-70
2021/12/09 08:17:12;;;;;;;6.00;4.40;;;;;;;3.24;89.25;95772.91;5031096;28;20622;-68
2021/12/09 08:19:38;;;;;;;8.30;4.50;;;;;;;3.33;88.08;95781.84;5036725;28;20299;-67
2021/12/09 08:22:08;;;;;;;4.80;4.30;;;;;;;3.36;88.64;95781.59;5053979;28;20222;-69
2021/12/09 08:24:35;;;;;;;5.37;4.47;;;;;;;3.37;89.80;95772.78;5049259;28;20200;-67
2021/12/09 08:27:01;;;;;;;5.13;4.63;;;;;;;3.42;90.11;95781.09;5039173;28;20301;-67
2021/12/09 08:29:27;;;;;;;5.17;4.67;;;;;;;3.47;88.75;95771.94;5036037;28;20207;-66
2021/12/09 08:31:54;;;;;;;5.17;4.67;;;;;;;3.51;88.92;95775.13;5035402;28;20310;-68
2021/12/09 08:34:20;;;;;;;4.93;4.43;;;;;;;3.53;88.42;95782.88;5035791;28;20338;-68
2021/12/09 08:36:47;;;;;;;4.20;3.80;;;;;;;3.68;86.55;95787.72;5035689;28;20249;-69
2021/12/09 08:39:15;;;;;;;4.33;3.93;;;;;;;3.57;87.59;95789.53;5035702;28;20231;-69
2021/12/09 08:41:41;;;;;;;4.30;3.73;;;;;;;3.60;87.08;95790.09;5032175;28;20246;-68
2021/12/09 08:44:08;;;;;;;4.40;4.00;;;;;;;3.62;87.04;95789.97;5035117;28;20207;-67
2021/12/09 08:46:35;;;;;;;4.00;3.70;;;;;;;3.61;87.89;95789.16;5035496;28;20532;-67
2021/12/09 08:49:01;;;;;;;4.63;3.80;;;;;;;3.66;87.09;95794.84;5034932;28;20646;-68
2021/12/09 08:51:29;;;;;;;4.37;3.97;;;;;;;3.66;87.29;95799.22;5035236;28;20214;-67
2021/12/09 08:53:57;;;;;;;5.07;3.80;;;;;;;3.65;87.51;95800.22;5035475;28;20292;-68
2021/12/09 08:56:25;;;;;;;4.60;4.10;;;;;;;3.59;86.25;95804.13;5025273;28;20211;-70
2021/12/09 08:58:51;;;;;;;6.40;4.00;;;;;;;3.63;86.46;95805.53;5035390;28;20221;-66
2021/12/09 09:01:18;;;;;;;9.83;4.00;;;;;;;3.61;86.78;95807.47;5030678;28;20204;-68
2021/12/09 09:03:44;;;;;;;5.40;3.73;;;;;;;3.64;86.46;95811.59;5016054;28;20566;-68
2021/12/09 09:06:11;;;;;;;3.80;3.50;;;;;;;3.61;86.22;95812.69;5046398;28;20222;-70
2021/12/09 09:08:38;;;;;;;4.97;3.93;;;;;;;3.63;86.57;95813.38;5035937;28;20316;-70
2021/12/09 09:11:04;;;;;;;6.73;4.13;;;;;;;3.61;87.08;95824.94;5035393;28;20229;-71
2021/12/09 09:13:32;;;;;;;4.10;3.70;;;;;;;3.63;85.78;95821.22;5023751;28;20210;-70
2021/12/09 09:15:59;;;;;;;3.87;3.57;;;;;;;3.59;85.29;95825.03;5022313;28;20199;-68
2021/12/09 09:18:25;;;;;;;4.17;3.77;;;;;;;3.58;85.61;95823.34;5035304;28;20218;-70
2021/12/09 09:20:52;;;;;;;5.40;3.90;;;;;;;3.64;84.95;95828.13;5030245;28;20225;-68
2021/12/09 09:23:21;;;;;;;4.90;3.67;;;;;;;3.54;85.63;95827.19;5015819;28;20208;-67
2021/12/09 09:25:48;;;;;;;4.23;3.73;;;;;;;3.58;85.44;95827.78;5024117;28;20208;-67
2021/12/09 09:28:15;;;;;;;3.70;3.40;;;;;;;3.56;85.48;95840.13;5035154;28;20222;-69
2021/12/09 09:30:49;;;;;;;4.00;3.60;;;;;;;3.51;85.10;95838.69;5036006;28;20203;-69
2021/12/09 09:33:16;;;;;;;5.17;3.60;;;;;;;3.51;86.70;95848.31;5034451;28;20657;-70
2021/12/09 09:35:44;;;;;;;4.60;3.97;;;;;;;3.42;86.77;95854.28;5025405;28;20290;-68
2021/12/09 09:38:10;;;;;;;4.37;4.00;;;;;;;3.45;88.82;95856.63;5019964;28;20208;-68
2021/12/09 09:40:41;;;;;;;4.90;4.03;;;;;;;3.45;88.62;95860.09;5014718;28;20247;-70
2021/12/09 09:43:25;;;;;;;4.53;4.13;;;;;;;3.40;89.62;95861.41;5024347;28;20538;-67
2021/12/09 09:45:54;;;;;;;4.33;3.97;;;;;;;3.43;88.66;95861.16;5026833;28;20195;-70
2021/12/09 09:48:21;;;;;;;5.07;4.57;;;;;;;3.49;89.44;95868.53;5034371;28;20208;-68
2021/12/09 09:50:49;;;;;;;5.27;4.80;;;;;;;3.50;88.88;95864.97;5034799;28;20207;-70
2021/12/09 09:53:16;;;;;;;5.33;4.27;;;;;;;3.55;89.12;95865.44;5035336;28;20203;-69
2021/12/09 09:55:46;;;;;;;6.00;4.70;;;;;;;3.55;89.82;95865.44;5027493;28;20249;-70
2021/12/09 09:58:12;;;;;;;5.30;4.80;;;;;;;3.58;90.23;95867.78;5035701;28;20206;-69
2021/12/09 10:00:39;;;;;;;6.07;5.13;;;;;;;3.62;88.92;95856.16;5022181;28;20242;-67
2021/12/09 10:03:11;;;;;;;4.53;4.13;;;;;;;3.66;89.03;95868.03;5026878;28;20536;-67
2021/12/09 10:05:43;;;;;;;4.60;4.20;;;;;;;3.61;89.83;95864.97;5033718;28;20203;-67
2021/12/09 10:08:09;;;;;;;5.20;4.53;;;;;;;3.53;90.27;95856.88;5031349;28;20258;-67
2021/12/09 10:10:36;;;;;;;6.53;4.53;;;;;;;3.54;89.58;95857.72;5038621;28;20214;-69
2021/12/09 10:13:05;;;;;;;5.00;4.57;;;;;;;3.50;89.24;95860.59;5040146;28;20214;-69
2021/12/09 10:15:36;;;;;;;5.30;4.80;;;;;;;3.59;90.05;95850.34;5038996;28;20213;-69
2021/12/09 10:18:03;;;;;;;5.83;4.70;;;;;;;3.64;91.96;95853.44;5032553;28;20659;-70
2021/12/09 10:20:50;;;;;;;9.23;5.00;;;;;;;3.70;90.32;95856.41;5046225;28;20234;-69
2021/12/09 10:23:23;;;;;;;6.00;4.47;;;;;;;3.79;88.66;95866.13;5050042;28;20203;-69
2021/12/09 10:26:10;;;;;;;4.90;4.40;;;;;;;3.72;87.33;95854.47;5047902;28;20291;-68
2021/12/09 10:28:37;;;;;;;4.50;4.10;;;;;;;3.79;87.08;95847.81;5043315;28;20214;-67
2021/12/09 10:31:12;;;;;;;4.90;4.50;;;;;;;3.83;88.30;95859.69;5050054;28;20207;-67
2021/12/09 10:34:01;;;;;;;5.67;4.10;;;;;;;3.80;87.10;95849.47;5049241;28;20263;-69
2021/12/09 10:37:00;;;;;;;5.77;4.00;;;;;;;3.95;89.07;95847.44;5039576;28;20318;-67
2021/12/09 10:39:31;;;;;;;4.63;4.23;;;;;;;4.10;87.36;95845.38;4965450;28;20225;-69
2021/12/09 10:42:00;;;;;;;4.60;4.20;;;;;;;4.14;88.00;95836.34;5025713;28;20239;-66
2021/12/09 10:44:39;;;;;;;5.03;4.37;;;;;;;4.20;85.86;95835.84;5038032;28;20612;-67
2021/12/09 10:47:10;;;;;;;3.70;3.40;;;;;;;4.31;85.75;95822.72;5037638;28;20626;-70
2021/12/09 10:49:53;;;;;;;4.17;3.87;;;;;;;4.24;87.01;95832.03;5023005;28;20259;-69
2021/12/09 10:52:24;;;;;;;7.63;4.60;;;;;;;4.25;88.05;95834.50;5028838;28;20231;-70
2021/12/09 10:54:51;;;;;;;5.90;4.40;;;;;;;4.31;86.71;95848.88;5034189;28;20575;-69
2021/12/09 10:57:26;;;;;;;4.43;4.00;;;;;;;4.36;84.97;95841.47;5025709;28;20208;-68
2021/12/09 10:59:53;;;;;;;5.57;4.10;;;;;;;4.35;85.36;95845.06;5017900;28;20232;-68
2021/12/09 11:02:20;;;;;;;5.60;4.07;;;;;;;4.45;85.00;95846.81;5023204;28;20208;-70
2021/12/09 11:05:06;;;;;;;4.23;3.83;;;;;;;4.38;84.79;95839.59;5028924;28;20203;-70
2021/12/09 11:07:35;;;;;;;5.57;4.17;;;;;;;4.48;83.88;95825.63;5041168;28;20211;-69
2021/12/09 11:10:15;;;;;;;4.47;3.70;;;;;;;4.46;83.56;95830.13;5027650;28;20258;-70
2021/12/09 11:12:49;;;;;;;3.90;3.50;;;;;;;4.53;84.42;95830.47;5034875;28;20290;-70
2021/12/09 11:15:16;;;;;;;4.00;3.50;;;;;;;4.64;82.59;95837.47;5037528;28;20211;-72
2021/12/09 11:17:46;;;;;;;4.00;3.60;;;;;;;4.64;83.06;95838.25;5037734;28;20207;-70
2021/12/09 11:20:13;;;;;;;3.77;3.37;;;;;;;4.59;83.17;95840.44;5036293;28;20659;-68
2021/12/09 11:22:43;;;;;;;4.87;3.50;;;;;;;4.58;81.32;95841.41;5037005;28;20221;-68
2021/12/09 11:25:32;;;;;;;3.67;3.23;;;;;;;4.42;82.57;95847.06;5037053;28;20206;-68
2021/12/09 11:28:12;;;;;;;6.47;2.93;;;;;;;4.42;83.38;95846.22;5037167;28;20211;-69
2021/12/09 11:31:10;;;;;;;3.50;3.13;;;;;;;4.49;83.29;95847.41;5029154;28;20250;-69
2021/12/09 11:33:40;;;;;;;3.60;2.87;;;;;;;4.52;82.45;95836.66;5032698;28;20307;-71
2021/12/09 11:36:07;;;;;;;3.03;2.37;;;;;;;4.42;82.15;95839.22;5036544;28;20261;-71
2021/12/09 11:38:52;;;;;;;2.50;2.30;;;;;;;4.42;83.00;95841.00;5032253;28;20290;-67
2021/12/09 11:41:30;;;;;;;3.37;2.23;;;;;;;4.36;83.83;95841.47;5026676;28;20310;-76
2021/12/09 11:43:57;;;;;;;2.60;2.40;;;;;;;4.39;83.09;95842.06;5036180;28;20200;-76